sensor_id;sensor_type;location;lat;lon;timestamp;pressure;altitude;pressure_sealevel;temperature;humidity
19108;BME280;9686;48.832;9.126;2023-11-19T00:00:59;98178.59;;;10.72;100.00
19108;BME280;9686;48.832;9.126;2023-11-19T00:03:25;98175.00;;;10.85;100.00
19108;BME280;9686;48.832;9.126;2023-11-19T00:05:50;98180.34;;;10.68;100.00
19108;BME280;9686;48.832;9.126;2023-11-19T00:08:15;98159.41;;;10.79;100.00
19108;BME280;9686;48.832;9.126;2023-11-19T00:10:41;98160.31;;;10.75;100.00
19108;BME280;9686;48.832;9.126;2023-11-19T00:13:06;98155.09;;;10.75;100.00
19108;BME280;9686;48.832;9.126;2023-11-19T00:15:32;98155.16;;;10.69;100.00
19108;BME280;9686;48.832;9.126;2023-11-19T00:17:57;98148.25;;;10.57;100.00
19108;BME280;9686;48.832;9.126;2023-11-19T00:20:22;98155.28;;;10.49;100.00
19108;BME280;9686;48.832;9.126;2023-11-19T00:22:48;98140.38;;;10.66;100.00
19108;BME280;9686;48.832;9.126;2023-11-19T00:25:16;98139.47;;;10.73;100.00
19108;BME280;9686;48.832;9.126;2023-11-19T00:27:42;98134.22;;;10.76;100.00
19108;BME280;9686;48.832;9.126;2023-11-19T00:30:10;98142.88;;;10.80;100.00
19108;BME280;9686;48.832;9.126;2023-11-19T00:32:36;98136.88;;;10.70;100.00
19108;BME280;9686;48.832;9.126;2023-11-19T00:35:03;98129.81;;;10.83;100.00
19108;BME280;9686;48.832;9.126;2023-11-19T00:37:29;98125.53;;;10.77;100.00
19108;BME280;9686;48.832;9.126;2023-11-19T00:39:54;98120.28;;;10.80;100.00
19108;BME280;9686;48.832;9.126;2023-11-19T00:42:21;98121.06;;;10.89;100.00
19108;BME280;9686;48.832;9.126;2023-11-19T00:44:47;98122.81;;;10.87;100.00
19108;BME280;9686;48.832;9.126;2023-11-19T00:47:12;98119.28;;;10.92;100.00
19108;BME280;9686;48.832;9.126;2023-11-19T00:49:37;98115.00;;;10.88;100.00
19108;BME280;9686;48.832;9.126;2023-11-19T00:52:03;98108.91;;;10.88;100.00
19108;BME280;9686;48.832;9.126;2023-11-19T00:54:28;98101.00;;;10.98;100.00
19108;BME280;9686;48.832;9.126;2023-11-19T00:56:54;98098.44;;;10.94;100.00
19108;BME280;9686;48.832;9.126;2023-11-19T00:59:19;98107.16;;;10.90;100.00
19108;BME280;9686;48.832;9.126;2023-11-19T01:01:45;98107.13;;;10.91;100.00
19108;BME280;9686;48.832;9.126;2023-11-19T01:04:10;98105.31;;;11.02;100.00
19108;BME280;9686;48.832;9.126;2023-11-19T01:06:36;98103.53;;;11.06;100.00
19108;BME280;9686;48.832;9.126;2023-11-19T01:09:01;98107.19;;;10.87;100.00
19108;BME280;9686;48.832;9.126;2023-11-19T01:11:27;98101.06;;;10.94;100.00
19108;BME280;9686;48.832;9.126;2023-11-19T01:13:53;98096.59;;;11.05;100.00
19108;BME280;9686;48.832;9.126;2023-11-19T01:16:18;98102.69;;;11.04;100.00
19108;BME280;9686;48.832;9.126;2023-11-19T01:18:47;98107.88;;;11.07;100.00
19108;BME280;9686;48.832;9.126;2023-11-19T01:21:13;98100.00;;;11.10;100.00
19108;BME280;9686;48.832;9.126;2023-11-19T01:23:42;98093.13;;;11.03;100.00
19108;BME280;9686;48.832;9.126;2023-11-19T01:26:11;98091.41;;;11.02;100.00
19108;BME280;9686;48.832;9.126;2023-11-19T01:28:37;98091.41;;;11.00;100.00
19108;BME280;9686;48.832;9.126;2023-11-19T01:31:05;98090.47;;;11.07;100.00
19108;BME280;9686;48.832;9.126;2023-11-19T01:33:30;98089.47;;;11.22;100.00
19108;BME280;9686;48.832;9.126;2023-11-19T01:35:55;98086.00;;;11.22;100.00
19108;BME280;9686;48.832;9.126;2023-11-19T01:38:24;98079.84;;;11.26;100.00
19108;BME280;9686;48.832;9.126;2023-11-19T01:40:49;98072.91;;;11.25;100.00
19108;BME280;9686;48.832;9.126;2023-11-19T01:43:33;98080.72;;;11.26;100.00
19108;BME280;9686;48.832;9.126;2023-11-19T01:46:00;98090.16;;;11.38;100.00
19108;BME280;9686;48.832;9.126;2023-11-19T01:48:25;98077.13;;;11.35;100.00
19108;BME280;9686;48.832;9.126;2023-11-19T01:50:51;98073.63;;;11.36;100.00
19108;BME280;9686;48.832;9.126;2023-11-19T01:53:18;98076.22;;;11.37;100.00
19108;BME280;9686;48.832;9.126;2023-11-19T01:55:46;98076.25;;;11.36;100.00
19108;BME280;9686;48.832;9.126;2023-11-19T01:58:11;98079.66;;;11.41;100.00
19108;BME280;9686;48.832;9.126;2023-11-19T02:00:37;98080.50;;;11.43;100.00
19108;BME280;9686;48.832;9.126;2023-11-19T02:03:05;98075.28;;;11.44;100.00
19108;BME280;9686;48.832;9.126;2023-11-19T02:05:32;98078.78;;;11.45;100.00
19108;BME280;9686;48.832;9.126;2023-11-19T02:07:58;98071.78;;;11.47;100.00
19108;BME280;9686;48.832;9.126;2023-11-19T02:10:23;98072.75;;;11.37;100.00
19108;BME280;9686;48.832;9.126;2023-11-19T02:12:50;98062.31;;;11.38;100.00
19108;BME280;9686;48.832;9.126;2023-11-19T02:15:16;98069.22;;;11.41;100.00
19108;BME280;9686;48.832;9.126;2023-11-19T02:17:44;98068.44;;;11.34;100.00
19108;BME280;9686;48.832;9.126;2023-11-19T02:20:09;98068.47;;;11.31;100.00
19108;BME280;9686;48.832;9.126;2023-11-19T02:22:37;98060.50;;;11.43;100.00
19108;BME280;9686;48.832;9.126;2023-11-19T02:25:07;98054.44;;;11.41;100.00
19108;BME280;9686;48.832;9.126;2023-11-19T02:27:53;98055.28;;;11.45;100.00
19108;BME280;9686;48.832;9.126;2023-11-19T02:30:22;98052.69;;;11.42;100.00
19108;BME280;9686;48.832;9.126;2023-11-19T02:32:52;98053.53;;;11.46;100.00
19108;BME280;9686;48.832;9.126;2023-11-19T02:35:18;98050.06;;;11.45;100.00
19108;BME280;9686;48.832;9.126;2023-11-19T02:37:43;98056.09;;;11.50;100.00
19108;BME280;9686;48.832;9.126;2023-11-19T02:40:10;98057.00;;;11.46;100.00
19108;BME280;9686;48.832;9.126;2023-11-19T02:42:35;98056.03;;;11.53;100.00
19108;BME280;9686;48.832;9.126;2023-11-19T02:45:01;98056.97;;;11.49;100.00
19108;BME280;9686;48.832;9.126;2023-11-19T02:47:27;98062.94;;;11.57;100.00
19108;BME280;9686;48.832;9.126;2023-11-19T02:49:55;98058.63;;;11.55;100.00
19108;BME280;9686;48.832;9.126;2023-11-19T02:52:21;98063.81;;;11.58;100.00
19108;BME280;9686;48.832;9.126;2023-11-19T02:54:46;98062.91;;;11.60;100.00
19108;BME280;9686;48.832;9.126;2023-11-19T02:57:11;98065.53;;;11.60;100.00
19108;BME280;9686;48.832;9.126;2023-11-19T02:59:39;98053.47;;;11.50;100.00
19108;BME280;9686;48.832;9.126;2023-11-19T03:02:07;98052.59;;;11.51;100.00
19108;BME280;9686;48.832;9.126;2023-11-19T03:04:36;98060.47;;;11.48;100.00
19108;BME280;9686;48.832;9.126;2023-11-19T03:07:01;98067.13;;;11.69;100.00
19108;BME280;9686;48.832;9.126;2023-11-19T03:09:27;98069.00;;;11.61;100.00
19108;BME280;9686;48.832;9.126;2023-11-19T03:11:54;98060.38;;;11.54;100.00
19108;BME280;9686;48.832;9.126;2023-11-19T03:14:19;98057.78;;;11.53;100.00
19108;BME280;9686;48.832;9.126;2023-11-19T03:16:45;98072.44;;;11.64;100.00
19108;BME280;9686;48.832;9.126;2023-11-19T03:19:13;98076.94;;;11.53;100.00
19108;BME280;9686;48.832;9.126;2023-11-19T03:21:39;98067.22;;;11.64;100.00
19108;BME280;9686;48.832;9.126;2023-11-19T03:24:04;98062.78;;;11.71;100.00
19108;BME280;9686;48.832;9.126;2023-11-19T03:26:30;98068.84;;;11.74;100.00
19108;BME280;9686;48.832;9.126;2023-11-19T03:28:55;98067.06;;;11.78;100.00
19108;BME280;9686;48.832;9.126;2023-11-19T03:31:22;98061.84;;;11.78;100.00
19108;BME280;9686;48.832;9.126;2023-11-19T03:33:48;98057.66;;;11.62;100.00
19108;BME280;9686;48.832;9.126;2023-11-19T03:36:13;98054.19;;;11.61;100.00
19108;BME280;9686;48.832;9.126;2023-11-19T03:38:38;98044.69;;;11.56;100.00
19108;BME280;9686;48.832;9.126;2023-11-19T03:41:13;98047.25;;;11.60;100.00
19108;BME280;9686;48.832;9.126;2023-11-19T03:43:40;98049.91;;;11.57;100.00
19108;BME280;9686;48.832;9.126;2023-11-19T03:46:18;98051.72;;;11.51;100.00
19108;BME280;9686;48.832;9.126;2023-11-19T03:48:44;98049.00;;;11.58;100.00
19108;BME280;9686;48.832;9.126;2023-11-19T03:51:09;98051.47;;;11.69;100.00
19108;BME280;9686;48.832;9.126;2023-11-19T03:53:35;98041.09;;;11.64;100.00
19108;BME280;9686;48.832;9.126;2023-11-19T03:56:00;98037.72;;;11.56;100.00
19108;BME280;9686;48.832;9.126;2023-11-19T03:58:26;98025.50;;;11.60;100.00
19108;BME280;9686;48.832;9.126;2023-11-19T04:00:51;98015.81;;;11.66;100.00
19108;BME280;9686;48.832;9.126;2023-11-19T04:03:17;98014.09;;;11.65;100.00
19108;BME280;9686;48.832;9.126;2023-11-19T04:05:44;98019.31;;;11.65;100.00
19108;BME280;9686;48.832;9.126;2023-11-19T04:08:10;98019.25;;;11.73;100.00
19108;BME280;9686;48.832;9.126;2023-11-19T04:10:35;98021.63;;;11.90;100.00
19108;BME280;9686;48.832;9.126;2023-11-19T04:13:00;98021.69;;;11.85;100.00
19108;BME280;9686;48.832;9.126;2023-11-19T04:15:26;98013.00;;;11.85;100.00
19108;BME280;9686;48.832;9.126;2023-11-19T04:17:51;98016.41;;;11.90;100.00
19108;BME280;9686;48.832;9.126;2023-11-19T04:20:16;98023.38;;;11.89;100.00
19108;BME280;9686;48.832;9.126;2023-11-19T04:22:42;98014.59;;;11.95;100.00
19108;BME280;9686;48.832;9.126;2023-11-19T04:25:07;98019.78;;;11.98;100.00
19108;BME280;9686;48.832;9.126;2023-11-19T04:27:33;98025.91;;;11.94;100.00
19108;BME280;9686;48.832;9.126;2023-11-19T04:29:58;98021.53;;;11.97;100.00
19108;BME280;9686;48.832;9.126;2023-11-19T04:32:25;98010.22;;;11.95;100.00
19108;BME280;9686;48.832;9.126;2023-11-19T04:34:51;98010.19;;;11.98;100.00
19108;BME280;9686;48.832;9.126;2023-11-19T04:37:17;98016.25;;;12.00;100.00
19108;BME280;9686;48.832;9.126;2023-11-19T04:39:44;98031.00;;;12.04;100.00
19108;BME280;9686;48.832;9.126;2023-11-19T04:42:09;98030.16;;;12.04;100.00
19108;BME280;9686;48.832;9.126;2023-11-19T04:44:34;98032.63;;;12.12;100.00
19108;BME280;9686;48.832;9.126;2023-11-19T04:47:00;98026.53;;;12.11;100.00
19108;BME280;9686;48.832;9.126;2023-11-19T04:49:25;98018.84;;;12.03;100.00
19108;BME280;9686;48.832;9.126;2023-11-19T04:51:52;98027.38;;;12.13;100.00
19108;BME280;9686;48.832;9.126;2023-11-19T04:54:17;98032.56;;;12.16;100.00
19108;BME280;9686;48.832;9.126;2023-11-19T04:56:46;98036.00;;;12.18;100.00
19108;BME280;9686;48.832;9.126;2023-11-19T04:59:14;98030.84;;;12.15;100.00
19108;BME280;9686;48.832;9.126;2023-11-19T05:01:40;98035.16;;;12.18;100.00
19108;BME280;9686;48.832;9.126;2023-11-19T05:04:05;98031.66;;;12.17;100.00
19108;BME280;9686;48.832;9.126;2023-11-19T05:06:31;98028.97;;;12.25;100.00
19108;BME280;9686;48.832;9.126;2023-11-19T05:08:59;98022.03;;;12.21;100.00
19108;BME280;9686;48.832;9.126;2023-11-19T05:11:26;98023.78;;;12.20;100.00
19108;BME280;9686;48.832;9.126;2023-11-19T05:13:53;98027.19;;;12.27;100.00
19108;BME280;9686;48.832;9.126;2023-11-19T05:16:18;98031.31;;;12.40;100.00
19108;BME280;9686;48.832;9.126;2023-11-19T05:18:44;98027.63;;;12.53;100.00
19108;BME280;9686;48.832;9.126;2023-11-19T05:21:10;98028.56;;;12.48;100.00
19108;BME280;9686;48.832;9.126;2023-11-19T05:23:35;98033.94;;;12.40;100.00
19108;BME280;9686;48.832;9.126;2023-11-19T05:26:03;98046.78;;;12.54;100.00
19108;BME280;9686;48.832;9.126;2023-11-19T05:28:29;98042.38;;;12.57;100.00
19108;BME280;9686;48.832;9.126;2023-11-19T05:30:54;98039.66;;;12.62;100.00
19108;BME280;9686;48.832;9.126;2023-11-19T05:33:20;98036.06;;;12.68;100.00
19108;BME280;9686;48.832;9.126;2023-11-19T05:35:46;98039.63;;;12.63;100.00
19108;BME280;9686;48.832;9.126;2023-11-19T05:38:11;98043.16;;;12.62;100.00
19108;BME280;9686;48.832;9.126;2023-11-19T05:40:37;98039.91;;;12.47;100.00
19108;BME280;9686;48.832;9.126;2023-11-19T05:43:03;98027.66;;;12.52;100.00
19108;BME280;9686;48.832;9.126;2023-11-19T05:45:29;98028.41;;;12.58;100.00
19108;BME280;9686;48.832;9.126;2023-11-19T05:47:54;98021.31;;;12.65;100.00
19108;BME280;9686;48.832;9.126;2023-11-19T05:50:19;98021.31;;;12.65;100.00
19108;BME280;9686;48.832;9.126;2023-11-19T05:52:46;98016.13;;;12.62;100.00
19108;BME280;9686;48.832;9.126;2023-11-19T05:55:11;98007.34;;;12.66;100.00
19108;BME280;9686;48.832;9.126;2023-11-19T05:57:37;98006.44;;;12.67;100.00
19108;BME280;9686;48.832;9.126;2023-11-19T06:00:03;97997.69;;;12.70;100.00
19108;BME280;9686;48.832;9.126;2023-11-19T06:02:32;97999.59;;;12.61;100.00
19108;BME280;9686;48.832;9.126;2023-11-19T06:04:58;98004.16;;;12.50;100.00
19108;BME280;9686;48.832;9.126;2023-11-19T06:07:23;98021.56;;;12.51;100.00
19108;BME280;9686;48.832;9.126;2023-11-19T06:09:48;98025.88;;;12.54;100.00
19108;BME280;9686;48.832;9.126;2023-11-19T06:12:13;98025.00;;;12.53;100.00
19108;BME280;9686;48.832;9.126;2023-11-19T06:14:40;98031.81;;;12.62;100.00
19108;BME280;9686;48.832;9.126;2023-11-19T06:17:05;98029.19;;;12.63;100.00
19108;BME280;9686;48.832;9.126;2023-11-19T06:19:31;98034.38;;;12.65;100.00
19108;BME280;9686;48.832;9.126;2023-11-19T06:21:56;98044.84;;;12.65;100.00
19108;BME280;9686;48.832;9.126;2023-11-19T06:24:21;98037.13;;;12.57;100.00
19108;BME280;9686;48.832;9.126;2023-11-19T06:26:47;98038.03;;;12.56;100.00
19108;BME280;9686;48.832;9.126;2023-11-19T06:29:13;98039.38;;;12.79;100.00
19108;BME280;9686;48.832;9.126;2023-11-19T06:31:43;98040.19;;;12.82;100.00
19108;BME280;9686;48.832;9.126;2023-11-19T06:34:09;98050.69;;;12.81;100.00
19108;BME280;9686;48.832;9.126;2023-11-19T06:36:34;98051.44;;;12.87;100.00
19108;BME280;9686;48.832;9.126;2023-11-19T06:39:00;98049.88;;;12.77;100.00
19108;BME280;9686;48.832;9.126;2023-11-19T06:41:27;98054.34;;;12.69;100.00
19108;BME280;9686;48.832;9.126;2023-11-19T06:43:52;98054.91;;;12.88;100.00
19108;BME280;9686;48.832;9.126;2023-11-19T06:46:17;98055.63;;;12.96;100.00
19108;BME280;9686;48.832;9.126;2023-11-19T06:48:44;98055.66;;;12.94;100.00
19108;BME280;9686;48.832;9.126;2023-11-19T06:51:10;98050.34;;;12.99;100.00
19108;BME280;9686;48.832;9.126;2023-11-19T06:53:36;98045.00;;;13.05;100.00
19108;BME280;9686;48.832;9.126;2023-11-19T06:56:02;98066.16;;;12.93;100.00
19108;BME280;9686;48.832;9.126;2023-11-19T06:58:31;98064.53;;;12.86;100.00
19108;BME280;9686;48.832;9.126;2023-11-19T07:00:57;98062.53;;;13.00;100.00
19108;BME280;9686;48.832;9.126;2023-11-19T07:03:22;98060.69;;;13.07;100.00
19108;BME280;9686;48.832;9.126;2023-11-19T07:05:47;98052.88;;;13.05;100.00
19108;BME280;9686;48.832;9.126;2023-11-19T07:08:13;98041.56;;;13.03;100.00
19108;BME280;9686;48.832;9.126;2023-11-19T07:10:39;98044.19;;;13.03;100.00
19108;BME280;9686;48.832;9.126;2023-11-19T07:13:04;98051.13;;;13.04;100.00
19108;BME280;9686;48.832;9.126;2023-11-19T07:15:31;98045.25;;;12.91;100.00
19108;BME280;9686;48.832;9.126;2023-11-19T07:17:57;98054.53;;;13.09;100.00
19108;BME280;9686;48.832;9.126;2023-11-19T07:20:24;98053.84;;;12.98;100.00
19108;BME280;9686;48.832;9.126;2023-11-19T07:22:52;98045.69;;;13.15;100.00
19108;BME280;9686;48.832;9.126;2023-11-19T07:25:17;98041.34;;;13.14;100.00
19108;BME280;9686;48.832;9.126;2023-11-19T07:27:43;98058.75;;;13.16;100.00
19108;BME280;9686;48.832;9.126;2023-11-19T07:30:08;98068.34;;;13.16;100.00
19108;BME280;9686;48.832;9.126;2023-11-19T07:32:33;98069.50;;;13.03;100.00
19108;BME280;9686;48.832;9.126;2023-11-19T07:34:59;98065.75;;;13.17;100.00
19108;BME280;9686;48.832;9.126;2023-11-19T07:37:24;98077.84;;;13.23;100.00
19108;BME280;9686;48.832;9.126;2023-11-19T07:39:50;98080.41;;;13.27;100.00
19108;BME280;9686;48.832;9.126;2023-11-19T07:42:15;98073.50;;;13.22;100.00
19108;BME280;9686;48.832;9.126;2023-11-19T07:44:40;98080.22;;;13.37;100.00
19108;BME280;9686;48.832;9.126;2023-11-19T07:47:06;98075.22;;;13.23;100.00
19108;BME280;9686;48.832;9.126;2023-11-19T07:49:32;98086.22;;;13.42;100.00
19108;BME280;9686;48.832;9.126;2023-11-19T07:51:57;98079.19;;;13.44;100.00
19108;BME280;9686;48.832;9.126;2023-11-19T07:54:22;98088.63;;;13.54;100.00
19108;BME280;9686;48.832;9.126;2023-11-19T07:56:48;98086.97;;;13.48;100.00
19108;BME280;9686;48.832;9.126;2023-11-19T07:59:14;98084.31;;;13.50;100.00
19108;BME280;9686;48.832;9.126;2023-11-19T08:01:40;98088.63;;;13.52;100.00
19108;BME280;9686;48.832;9.126;2023-11-19T08:04:06;98087.59;;;13.61;100.00
19108;BME280;9686;48.832;9.126;2023-11-19T08:06:31;98089.56;;;13.48;100.00
19108;BME280;9686;48.832;9.126;2023-11-19T08:08:57;98091.22;;;13.55;100.00
19108;BME280;9686;48.832;9.126;2023-11-19T08:11:22;98083.38;;;13.54;100.00
19108;BME280;9686;48.832;9.126;2023-11-19T08:13:48;98087.53;;;13.64;100.00
19108;BME280;9686;48.832;9.126;2023-11-19T08:16:13;98082.31;;;13.63;100.00
19108;BME280;9686;48.832;9.126;2023-11-19T08:18:41;98096.31;;;13.62;100.00
19108;BME280;9686;48.832;9.126;2023-11-19T08:21:07;98077.94;;;13.63;100.00
19108;BME280;9686;48.832;9.126;2023-11-19T08:23:33;98096.41;;;13.57;100.00
19108;BME280;9686;48.832;9.126;2023-11-19T08:25:59;98091.94;;;13.62;100.00
19108;BME280;9686;48.832;9.126;2023-11-19T08:28:24;98093.47;;;13.72;100.00
19108;BME280;9686;48.832;9.126;2023-11-19T08:30:50;98089.94;;;13.73;100.00
19108;BME280;9686;48.832;9.126;2023-11-19T08:33:15;98095.09;;;13.78;100.00
19108;BME280;9686;48.832;9.126;2023-11-19T08:35:40;98089.84;;;13.78;100.00
19108;BME280;9686;48.832;9.126;2023-11-19T08:38:06;98087.81;;;13.92;100.00
19108;BME280;9686;48.832;9.126;2023-11-19T08:40:31;98104.13;;;14.06;100.00
19108;BME280;9686;48.832;9.126;2023-11-19T08:42:57;98110.13;;;14.11;100.00
19108;BME280;9686;48.832;9.126;2023-11-19T08:45:22;98101.28;;;14.15;100.00
19108;BME280;9686;48.832;9.126;2023-11-19T08:47:48;98103.94;;;14.14;100.00
19108;BME280;9686;48.832;9.126;2023-11-19T08:50:13;98090.63;;;14.23;100.00
19108;BME280;9686;48.832;9.126;2023-11-19T08:52:38;98090.59;;;14.25;100.00
19108;BME280;9686;48.832;9.126;2023-11-19T08:55:04;98086.31;;;14.20;100.00
19108;BME280;9686;48.832;9.126;2023-11-19T08:57:31;98089.06;;;14.14;100.00
19108;BME280;9686;48.832;9.126;2023-11-19T08:59:56;98092.78;;;14.04;100.00
19108;BME280;9686;48.832;9.126;2023-11-19T09:02:21;98094.31;;;14.14;100.00
19108;BME280;9686;48.832;9.126;2023-11-19T09:04:47;98099.66;;;14.10;100.00
19108;BME280;9686;48.832;9.126;2023-11-19T09:07:12;98093.34;;;14.18;100.00
19108;BME280;9686;48.832;9.126;2023-11-19T09:09:37;98095.59;;;14.35;100.00
19108;BME280;9686;48.832;9.126;2023-11-19T09:12:03;98104.44;;;14.31;100.00
19108;BME280;9686;48.832;9.126;2023-11-19T09:14:29;98098.97;;;14.40;100.00
19108;BME280;9686;48.832;9.126;2023-11-19T09:16:55;98091.84;;;14.47;100.00
19108;BME280;9686;48.832;9.126;2023-11-19T09:19:21;98090.09;;;14.47;100.00
19108;BME280;9686;48.832;9.126;2023-11-19T09:21:46;98102.16;;;14.55;100.00
19108;BME280;9686;48.832;9.126;2023-11-19T09:24:13;98105.94;;;14.43;100.00
19108;BME280;9686;48.832;9.126;2023-11-19T09:26:38;98110.06;;;14.53;100.00
19108;BME280;9686;48.832;9.126;2023-11-19T09:29:06;98111.75;;;14.56;100.00
19108;BME280;9686;48.832;9.126;2023-11-19T09:31:32;98109.91;;;14.61;100.00
19108;BME280;9686;48.832;9.126;2023-11-19T09:33:58;98115.97;;;14.63;100.00
19108;BME280;9686;48.832;9.126;2023-11-19T09:36:23;98114.25;;;14.62;100.00
19108;BME280;9686;48.832;9.126;2023-11-19T09:38:48;98120.41;;;14.61;100.00
19108;BME280;9686;48.832;9.126;2023-11-19T09:41:13;98114.84;;;14.34;100.00
19108;BME280;9686;48.832;9.126;2023-11-19T09:43:39;98109.16;;;14.54;100.00
19108;BME280;9686;48.832;9.126;2023-11-19T09:46:06;98104.94;;;14.48;100.00
19108;BME280;9686;48.832;9.126;2023-11-19T09:48:33;98119.03;;;14.80;100.00
19108;BME280;9686;48.832;9.126;2023-11-19T09:51:00;98114.06;;;15.03;100.00
19108;BME280;9686;48.832;9.126;2023-11-19T09:53:26;98095.75;;;15.02;100.00
19108;BME280;9686;48.832;9.126;2023-11-19T09:55:52;98099.22;;;15.02;100.00
19108;BME280;9686;48.832;9.126;2023-11-19T09:58:18;98101.19;;;14.94;100.00
19108;BME280;9686;48.832;9.126;2023-11-19T10:00:43;98097.94;;;15.19;100.00
19108;BME280;9686;48.832;9.126;2023-11-19T10:03:11;98097.03;;;15.20;100.00
19108;BME280;9686;48.832;9.126;2023-11-19T10:05:37;98091.75;;;15.21;100.00
19108;BME280;9686;48.832;9.126;2023-11-19T10:08:04;98100.19;;;15.32;100.00
19108;BME280;9686;48.832;9.126;2023-11-19T10:10:30;98092.91;;;15.43;100.00
19108;BME280;9686;48.832;9.126;2023-11-19T10:12:55;98079.81;;;15.42;100.00
19108;BME280;9686;48.832;9.126;2023-11-19T10:15:25;98081.81;;;15.65;100.00
19108;BME280;9686;48.832;9.126;2023-11-19T10:18:00;98069.81;;;15.86;100.00
19108;BME280;9686;48.832;9.126;2023-11-19T10:20:25;98076.03;;;15.83;100.00
19108;BME280;9686;48.832;9.126;2023-11-19T10:22:55;98074.16;;;15.88;100.00
19108;BME280;9686;48.832;9.126;2023-11-19T10:25:28;98062.78;;;15.86;100.00
19108;BME280;9686;48.832;9.126;2023-11-19T10:27:55;98072.50;;;16.14;100.00
19108;BME280;9686;48.832;9.126;2023-11-19T10:30:22;98068.63;;;16.25;100.00
19108;BME280;9686;48.832;9.126;2023-11-19T10:33:03;98079.16;;;16.25;100.00
19108;BME280;9686;48.832;9.126;2023-11-19T10:35:29;98073.13;;;16.22;100.00
19108;BME280;9686;48.832;9.126;2023-11-19T10:37:54;98074.97;;;16.18;100.00
19108;BME280;9686;48.832;9.126;2023-11-19T10:40:19;98065.94;;;16.27;100.00
19108;BME280;9686;48.832;9.126;2023-11-19T10:42:45;98074.50;;;16.33;100.00
19108;BME280;9686;48.832;9.126;2023-11-19T10:45:23;98055.13;;;16.36;100.00
19108;BME280;9686;48.832;9.126;2023-11-19T10:47:51;98060.91;;;16.47;100.00
19108;BME280;9686;48.832;9.126;2023-11-19T10:50:16;98064.66;;;16.40;100.00
19108;BME280;9686;48.832;9.126;2023-11-19T10:52:43;98060.16;;;16.44;100.00
19108;BME280;9686;48.832;9.126;2023-11-19T10:55:11;98054.03;;;16.43;100.00
19108;BME280;9686;48.832;9.126;2023-11-19T10:57:39;98050.94;;;16.57;100.00
19108;BME280;9686;48.832;9.126;2023-11-19T11:00:10;98059.19;;;16.46;100.00
19108;BME280;9686;48.832;9.126;2023-11-19T11:02:40;98059.25;;;16.45;100.00
19108;BME280;9686;48.832;9.126;2023-11-19T11:05:07;98054.22;;;16.37;100.00
19108;BME280;9686;48.832;9.126;2023-11-19T11:07:33;98055.84;;;16.41;100.00
19108;BME280;9686;48.832;9.126;2023-11-19T11:10:01;98055.22;;;16.33;100.00
19108;BME280;9686;48.832;9.126;2023-11-19T11:12:27;98049.94;;;16.33;100.00
19108;BME280;9686;48.832;9.126;2023-11-19T11:14:54;98049.16;;;16.31;100.00
19108;BME280;9686;48.832;9.126;2023-11-19T11:17:20;98049.44;;;16.22;100.00
19108;BME280;9686;48.832;9.126;2023-11-19T11:19:49;98044.38;;;16.16;100.00
19108;BME280;9686;48.832;9.126;2023-11-19T11:22:15;98041.69;;;15.89;100.00
19108;BME280;9686;48.832;9.126;2023-11-19T11:27:53;98030.47;;;15.83;100.00
19108;BME280;9686;48.832;9.126;2023-11-19T11:31:00;98034.00;;;15.82;100.00
19108;BME280;9686;48.832;9.126;2023-11-19T11:33:32;98025.97;;;15.86;100.00
19108;BME280;9686;48.832;9.126;2023-11-19T11:36:13;98037.66;;;16.06;100.00
19108;BME280;9686;48.832;9.126;2023-11-19T11:38:43;98038.44;;;16.09;100.00
19108;BME280;9686;48.832;9.126;2023-11-19T11:43:54;98007.38;;;17.01;100.00
19108;BME280;9686;48.832;9.126;2023-11-19T11:49:03;98017.16;;;16.45;100.00
19108;BME280;9686;48.832;9.126;2023-11-19T11:56:39;98011.06;;;16.16;100.00
19108;BME280;9686;48.832;9.126;2023-11-19T11:59:08;98012.56;;;16.23;100.00
19108;BME280;9686;48.832;9.126;2023-11-19T12:01:35;97999.59;;;16.45;100.00
19108;BME280;9686;48.832;9.126;2023-11-19T12:04:00;97995.41;;;16.64;100.00
19108;BME280;9686;48.832;9.126;2023-11-19T12:06:27;98000.69;;;16.66;100.00
19108;BME280;9686;48.832;9.126;2023-11-19T12:08:52;97998.66;;;16.74;100.00
19108;BME280;9686;48.832;9.126;2023-11-19T12:11:17;97998.44;;;16.80;100.00
19108;BME280;9686;48.832;9.126;2023-11-19T12:13:54;97995.56;;;16.86;100.00
19108;BME280;9686;48.832;9.126;2023-11-19T12:16:24;97998.03;;;16.91;100.00
19108;BME280;9686;48.832;9.126;2023-11-19T12:18:50;97995.06;;;17.02;100.00
19108;BME280;9686;48.832;9.126;2023-11-19T12:21:29;97999.47;;;17.01;100.00
19108;BME280;9686;48.832;9.126;2023-11-19T12:23:58;97993.69;;;16.90;100.00
19108;BME280;9686;48.832;9.126;2023-11-19T12:26:37;97986.00;;;16.84;100.00
19108;BME280;9686;48.832;9.126;2023-11-19T12:29:03;97968.50;;;16.83;100.00
19108;BME280;9686;48.832;9.126;2023-11-19T12:31:29;97963.44;;;16.77;100.00
19108;BME280;9686;48.832;9.126;2023-11-19T12:33:54;97968.50;;;16.56;100.00
19108;BME280;9686;48.832;9.126;2023-11-19T12:36:20;97949.09;;;16.59;100.00
19108;BME280;9686;48.832;9.126;2023-11-19T12:42:07;97940.56;;;16.52;100.00
19108;BME280;9686;48.832;9.126;2023-11-19T12:44:32;97940.16;;;16.66;100.00
19108;BME280;9686;48.832;9.126;2023-11-19T12:47:08;97941.75;;;16.70;100.00
19108;BME280;9686;48.832;9.126;2023-11-19T12:49:36;97939.88;;;16.74;100.00
19108;BME280;9686;48.832;9.126;2023-11-19T12:52:01;97938.38;;;16.91;100.00
19108;BME280;9686;48.832;9.126;2023-11-19T12:54:37;97929.56;;;16.92;100.00
19108;BME280;9686;48.832;9.126;2023-11-19T12:57:03;97942.75;;;16.91;100.00
19108;BME280;9686;48.832;9.126;2023-11-19T12:59:29;97937.25;;;16.74;100.00
19108;BME280;9686;48.832;9.126;2023-11-19T13:01:56;97933.53;;;16.79;100.00
19108;BME280;9686;48.832;9.126;2023-11-19T13:04:23;97933.06;;;16.68;100.00
19108;BME280;9686;48.832;9.126;2023-11-19T13:06:49;97932.94;;;16.71;100.00
19108;BME280;9686;48.832;9.126;2023-11-19T13:09:22;97941.59;;;16.75;100.00
19108;BME280;9686;48.832;9.126;2023-11-19T13:11:49;97945.31;;;16.69;100.00
19108;BME280;9686;48.832;9.126;2023-11-19T13:14:14;97948.25;;;16.85;100.00